createdAt,value
2019-05-30T00:01:31.342Z,85.09
2019-05-30T00:04:03.057Z,85.38
2019-05-30T00:06:32.076Z,85.40
2019-05-30T00:09:03.244Z,85.30
2019-05-30T00:11:32.720Z,85.51
2019-05-30T00:14:02.798Z,84.07
2019-05-30T00:16:32.641Z,84.09
2019-05-30T00:19:02.901Z,83.98
2019-05-30T00:21:32.395Z,84.08
2019-05-30T00:24:02.135Z,84.19
2019-05-30T00:26:31.527Z,84.32
2019-05-30T00:29:02.423Z,84.11
2019-05-30T00:31:32.046Z,84.05
2019-05-30T00:34:02.512Z,84.00
2019-05-30T00:36:32.356Z,83.85
2019-05-30T00:39:01.957Z,83.94
2019-05-30T00:41:31.485Z,84.21
2019-05-30T00:44:01.847Z,84.45
2019-05-30T00:46:31.724Z,84.12
2019-05-30T00:49:02.437Z,84.00
2019-05-30T00:51:32.037Z,84.16
2019-05-30T00:54:02.880Z,84.33
2019-05-30T00:56:32.402Z,85.10
2019-05-30T00:59:02.737Z,85.01
2019-05-30T01:01:32.254Z,84.93
2019-05-30T01:04:02.668Z,84.87
2019-05-30T01:06:32.261Z,85.11
2019-05-30T01:09:03.086Z,84.58
2019-05-30T01:11:32.582Z,84.68
2019-05-30T01:14:03.655Z,85.14
2019-05-30T01:16:33.340Z,84.96
2019-05-30T01:19:03.201Z,84.78
2019-05-30T01:21:32.666Z,84.88
2019-05-30T01:24:03.381Z,85.65
2019-05-30T01:26:33.029Z,85.87
2019-05-30T01:29:03.443Z,85.57
2019-05-30T01:31:33.168Z,85.64
2019-05-30T01:34:03.690Z,85.26
2019-05-30T01:36:33.157Z,85.52
2019-05-30T01:39:03.754Z,85.02
2019-05-30T01:41:33.437Z,84.96
2019-05-30T01:44:03.981Z,85.03
2019-05-30T01:46:33.629Z,84.96
2019-05-30T01:49:04.283Z,85.56
2019-05-30T01:51:33.926Z,85.56
2019-05-30T01:54:04.528Z,85.47
2019-05-30T01:56:34.105Z,85.30
2019-05-30T01:59:04.813Z,85.28
2019-05-30T02:01:34.318Z,85.04
2019-05-30T02:04:05.114Z,85.47
2019-05-30T02:06:38.130Z,85.17
2019-05-30T02:09:10.332Z,85.69
2019-05-30T02:11:39.629Z,85.67
2019-05-30T02:14:09.971Z,85.98
2019-05-30T02:16:39.505Z,85.81
2019-05-30T02:19:10.531Z,85.70
2019-05-30T02:21:40.296Z,85.28
2019-05-30T02:24:12.053Z,85.27
2019-05-30T02:26:41.137Z,85.20
2019-05-30T02:29:10.743Z,84.64
2019-05-30T02:31:40.563Z,85.29
2019-05-30T02:34:12.054Z,85.89
2019-05-30T02:36:41.384Z,85.62
2019-05-30T02:39:11.990Z,85.63
2019-05-30T02:41:41.775Z,85.31
2019-05-30T02:44:12.441Z,84.88
2019-05-30T02:46:42.150Z,84.49
2019-05-30T02:49:13.800Z,83.75
2019-05-30T02:51:43.152Z,83.75
2019-05-30T02:54:13.243Z,84.28
2019-05-30T02:56:42.999Z,84.53
2019-05-30T02:59:13.592Z,84.62
2019-05-30T03:01:59.986Z,85.05
2019-05-30T03:04:14.773Z,85.20
2019-05-30T03:06:44.271Z,85.31
2019-05-30T03:09:14.118Z,85.18
2019-05-30T03:11:43.653Z,85.02
2019-05-30T03:14:19.093Z,84.98
2019-05-30T03:16:45.211Z,85.45
2019-05-30T03:19:14.661Z,85.39
2019-05-30T03:21:44.067Z,85.33
2019-05-30T03:24:14.345Z,85.15
2019-05-30T03:26:43.995Z,85.36
2019-05-30T03:29:14.380Z,85.40
2019-05-30T03:31:45.629Z,85.54
2019-05-30T03:34:26.115Z,85.38
2019-05-30T03:36:46.242Z,85.65
2019-05-30T03:39:15.798Z,85.88
2019-05-30T03:41:45.405Z,85.38
2019-05-30T03:44:15.663Z,85.57
2019-05-30T03:46:50.160Z,84.90
2019-05-30T03:49:22.601Z,85.27
2019-05-30T03:51:53.452Z,85.06
2019-05-30T03:54:23.848Z,85.20
2019-05-30T03:56:59.417Z,84.95
2019-05-30T03:59:35.199Z,85.08
2019-05-30T04:02:55.251Z,85.01
2019-05-30T04:05:13.613Z,84.96
2019-05-30T04:07:48.389Z,85.19
2019-05-30T04:10:21.429Z,85.43
2019-05-30T04:13:19.214Z,85.73
2019-05-30T04:15:50.089Z,85.35
2019-05-30T04:18:19.780Z,85.39
2019-05-30T04:20:49.447Z,85.38
2019-05-30T04:23:19.582Z,84.07
2019-05-30T04:25:49.052Z,83.91
2019-05-30T04:28:19.039Z,84.60
2019-05-30T04:30:48.532Z,83.95
2019-05-30T04:33:31.622Z,82.73
2019-05-30T04:35:49.188Z,81.69
2019-05-30T04:38:19.459Z,82.10
2019-05-30T04:40:49.122Z,82.38
2019-05-30T04:43:20.225Z,81.98
2019-05-30T04:45:50.013Z,82.61
2019-05-30T04:48:21.246Z,81.36
2019-05-30T04:50:50.596Z,82.11
2019-05-30T04:53:20.957Z,80.59
2019-05-30T04:55:50.731Z,81.28
2019-05-30T04:58:21.830Z,81.06
2019-05-30T05:00:51.721Z,80.65
2019-05-30T05:03:42.459Z,81.85
2019-05-30T05:05:52.400Z,80.68
2019-05-30T05:08:22.210Z,81.35
2019-05-30T05:10:51.846Z,82.62
2019-05-30T05:13:22.566Z,83.32
2019-05-30T05:15:52.180Z,84.09
2019-05-30T05:18:23.259Z,83.89
2019-05-30T05:20:53.120Z,83.75
2019-05-30T05:23:23.415Z,82.94
2019-05-30T05:26:01.043Z,82.67
2019-05-30T05:28:24.261Z,81.78
2019-05-30T05:30:53.773Z,81.94
2019-05-30T05:33:23.275Z,80.17
2019-05-30T05:35:52.803Z,80.12
2019-05-30T05:38:22.461Z,77.62
2019-05-30T05:40:51.899Z,76.01
2019-05-30T05:43:22.470Z,76.76
2019-05-30T05:45:51.916Z,77.64
2019-05-30T05:48:22.500Z,76.73
2019-05-30T05:50:52.282Z,76.28
2019-05-30T05:53:23.043Z,77.03
2019-05-30T05:55:52.515Z,78.45
2019-05-30T05:58:23.723Z,77.55
2019-05-30T06:00:53.173Z,77.73
2019-05-30T06:03:22.624Z,75.03
2019-05-30T06:05:53.424Z,73.53
2019-05-30T06:08:23.719Z,74.64
2019-05-30T06:10:53.274Z,75.17
2019-05-30T06:13:22.989Z,76.59
2019-05-30T06:15:52.727Z,73.90
2019-05-30T06:18:22.340Z,77.75
2019-05-30T06:20:51.781Z,76.47
2019-05-30T06:23:21.584Z,75.67
2019-05-30T06:25:51.109Z,74.26
2019-05-30T06:28:20.556Z,76.00
2019-05-30T06:30:50.098Z,76.68
2019-05-30T06:33:20.541Z,74.47
2019-05-30T06:35:50.256Z,76.37
2019-05-30T06:38:19.732Z,73.79
2019-05-30T06:40:49.229Z,76.11
2019-05-30T06:43:19.865Z,72.27
2019-05-30T06:45:49.577Z,71.78
2019-05-30T06:48:20.547Z,72.97
2019-05-30T06:50:50.457Z,74.03
2019-05-30T06:53:21.029Z,73.34
2019-05-30T06:55:50.548Z,73.34
2019-05-30T06:58:38.253Z,70.77
2019-05-30T07:00:51.457Z,70.77
2019-05-30T07:03:22.039Z,69.95
2019-05-30T07:05:52.166Z,61.72
2019-05-30T07:08:22.676Z,66.50
2019-05-30T07:10:52.371Z,64.02
2019-05-30T07:13:23.228Z,61.92
2019-05-30T07:15:53.629Z,61.21
2019-05-30T07:18:23.436Z,62.78
2019-05-30T07:20:53.036Z,59.35
2019-05-30T07:23:23.663Z,61.07
2019-05-30T07:25:53.224Z,59.25
2019-05-30T07:28:23.696Z,62.18
2019-05-30T07:30:53.368Z,59.04
2019-05-30T07:33:23.939Z,60.25
2019-05-30T07:35:53.538Z,55.51
2019-05-30T07:38:24.264Z,57.31
2019-05-30T07:40:53.953Z,54.09
2019-05-30T07:43:25.358Z,46.29
2019-05-30T07:45:58.230Z,46.07
2019-05-30T07:48:26.371Z,42.57
2019-05-30T07:50:56.006Z,45.78
2019-05-30T07:53:26.604Z,42.81
2019-05-30T07:55:56.212Z,37.22
2019-05-30T07:58:25.663Z,40.68
2019-05-30T08:00:55.104Z,38.38
2019-05-30T08:03:24.756Z,36.38
2019-05-30T08:05:54.149Z,39.96
2019-05-30T08:08:23.645Z,33.48
2019-05-30T08:11:08.082Z,31.53
2019-05-30T08:13:24.196Z,31.13
2019-05-30T08:15:55.027Z,33.47
2019-05-30T08:18:24.629Z,35.19
2019-05-30T08:20:54.220Z,35.42
2019-05-30T08:23:23.735Z,29.90
2019-05-30T08:25:53.289Z,32.17
2019-05-30T08:28:23.058Z,33.73
2019-05-30T08:30:52.478Z,29.09
2019-05-30T08:33:21.945Z,28.82
2019-05-30T08:35:51.403Z,30.85
2019-05-30T08:38:20.985Z,33.51
2019-05-30T08:40:50.584Z,27.61
2019-05-30T08:43:20.193Z,25.11
2019-05-30T08:45:49.757Z,22.65
2019-05-30T08:48:19.327Z,27.33
2019-05-30T08:50:48.783Z,26.97
2019-05-30T08:53:18.405Z,28.31
2019-05-30T08:55:48.027Z,27.01
2019-05-30T08:58:17.500Z,25.83
2019-05-30T09:00:47.112Z,24.36
2019-05-30T09:03:16.616Z,26.58
2019-05-30T09:06:00.882Z,22.87
2019-05-30T09:08:17.276Z,23.52
2019-05-30T09:10:46.867Z,23.35
2019-05-30T09:13:16.319Z,22.58
2019-05-30T09:15:46.977Z,20.50
2019-05-30T09:18:16.505Z,23.37
2019-05-30T09:20:47.363Z,22.64
2019-05-30T09:23:16.848Z,18.94
2019-05-30T09:25:49.056Z,21.16
2019-05-30T09:28:17.800Z,18.35
2019-05-30T09:30:48.484Z,16.45
2019-05-30T09:33:18.054Z,16.20
2019-05-30T09:35:47.602Z,18.09
2019-05-30T09:38:17.087Z,15.86
2019-05-30T09:40:47.645Z,17.06
2019-05-30T09:43:17.173Z,16.30
2019-05-30T09:45:46.633Z,19.18
2019-05-30T09:48:16.187Z,17.04
2019-05-30T09:50:46.806Z,15.92
2019-05-30T09:53:16.363Z,18.30
2019-05-30T09:55:46.236Z,17.72
2019-05-30T09:58:15.749Z,16.93
2019-05-30T10:00:46.659Z,16.78
2019-05-30T10:03:16.775Z,18.37
2019-05-30T10:05:47.030Z,18.25
2019-05-30T10:08:16.425Z,16.64
2019-05-30T10:10:47.718Z,18.50
2019-05-30T10:13:17.288Z,18.48
2019-05-30T10:15:47.025Z,19.10
2019-05-30T10:18:16.748Z,19.79
2019-05-30T10:20:47.776Z,20.70
2019-05-30T10:23:17.591Z,16.63
2019-05-30T10:25:49.416Z,14.48
2019-05-30T10:28:18.858Z,18.34
2019-05-30T10:30:52.563Z,18.23
2019-05-30T10:33:19.642Z,18.70
2019-05-30T10:35:51.005Z,17.10
2019-05-30T10:38:20.575Z,15.44
2019-05-30T10:40:50.515Z,18.22
2019-05-30T10:43:20.055Z,18.19
2019-05-30T10:45:49.651Z,16.20
2019-05-30T10:48:20.901Z,16.51
2019-05-30T10:50:50.633Z,18.43
2019-05-30T10:53:20.109Z,16.65
2019-05-30T10:55:50.068Z,13.15
2019-05-30T10:58:19.807Z,14.89
2019-05-30T11:00:55.673Z,15.23
2019-05-30T11:03:27.572Z,12.27
2019-05-30T11:06:07.057Z,11.58
2019-05-30T11:08:37.754Z,10.20
2019-05-30T11:11:08.590Z,11.24
2019-05-30T11:13:38.126Z,11.62
2019-05-30T11:16:07.563Z,12.22
2019-05-30T11:18:36.963Z,11.79
2019-05-30T11:21:06.559Z,11.42
2019-05-30T11:23:36.063Z,11.31
2019-05-30T11:26:05.598Z,11.00
2019-05-30T11:28:35.483Z,11.88
2019-05-30T11:31:06.745Z,11.05
2019-05-30T11:33:36.209Z,12.54
2019-05-30T11:36:05.797Z,10.88
2019-05-30T11:38:35.258Z,11.70
2019-05-30T11:41:04.786Z,13.74
2019-05-30T11:43:34.431Z,12.56
2019-05-30T11:46:03.953Z,12.17
2019-05-30T11:48:33.412Z,13.86
2019-05-30T11:51:02.842Z,13.39
2019-05-30T11:53:33.316Z,12.23
2019-05-30T11:56:02.713Z,14.21
2019-05-30T11:58:34.348Z,12.53
2019-05-30T12:01:03.865Z,13.04
2019-05-30T12:03:37.804Z,17.59
2019-05-30T12:06:08.147Z,16.00
2019-05-30T12:08:37.586Z,14.06
2019-05-30T12:11:08.909Z,17.45
2019-05-30T12:13:41.425Z,13.08
2019-05-30T12:16:10.883Z,13.58
2019-05-30T12:18:40.522Z,12.92
2019-05-30T12:21:10.089Z,11.47
2019-05-30T12:23:42.512Z,10.44
2019-05-30T12:26:11.950Z,11.35
2019-05-30T12:28:41.458Z,13.42
2019-05-30T12:31:10.876Z,13.64
2019-05-30T12:33:41.500Z,11.72
2019-05-30T12:36:13.591Z,13.25
2019-05-30T12:38:42.984Z,13.07
2019-05-30T12:41:12.499Z,12.00
2019-05-30T12:43:41.989Z,9.29
2019-05-30T12:46:11.749Z,11.30
2019-05-30T12:48:41.085Z,12.08
2019-05-30T12:51:10.601Z,14.58
2019-05-30T12:53:40.160Z,15.96
2019-05-30T12:56:09.583Z,14.87
2019-05-30T12:58:39.056Z,12.24
2019-05-30T13:01:10.048Z,14.35
2019-05-30T13:03:39.456Z,16.33
2019-05-30T13:06:08.971Z,15.21
2019-05-30T13:08:38.644Z,14.92
2019-05-30T13:11:08.078Z,12.29
2019-05-30T13:13:37.557Z,12.58
2019-05-30T13:16:08.918Z,11.37
2019-05-30T13:18:38.703Z,10.84
2019-05-30T13:21:08.219Z,12.59
2019-05-30T13:23:37.943Z,11.85
2019-05-30T13:26:07.333Z,14.20
2019-05-30T13:28:36.777Z,12.31
2019-05-30T13:31:07.095Z,14.39
2019-05-30T13:33:38.489Z,13.05
2019-05-30T13:36:07.739Z,14.98
2019-05-30T13:38:37.155Z,15.51
2019-05-30T13:41:08.268Z,12.95
2019-05-30T13:43:37.756Z,12.46
2019-05-30T13:46:08.414Z,11.72
2019-05-30T13:48:38.021Z,13.87
2019-05-30T13:51:09.146Z,13.93
2019-05-30T13:53:38.696Z,15.51
2019-05-30T13:56:08.024Z,19.16
2019-05-30T13:58:37.508Z,21.63
2019-05-30T14:01:11.526Z,22.93
2019-05-30T14:03:38.186Z,24.22
2019-05-30T14:06:08.362Z,24.78
2019-05-30T14:08:41.740Z,24.57
2019-05-30T14:11:08.937Z,26.03
2019-05-30T14:13:38.528Z,25.06
2019-05-30T14:16:09.014Z,25.54
2019-05-30T14:18:38.567Z,25.13
2019-05-30T14:21:09.266Z,24.31
2019-05-30T14:23:38.811Z,24.15
2019-05-30T14:26:09.388Z,24.37
2019-05-30T14:28:39.021Z,25.59
2019-05-30T14:31:08.919Z,19.25
2019-05-30T14:33:38.573Z,17.08
2019-05-30T14:36:11.372Z,14.13
2019-05-30T14:38:39.338Z,15.43
2019-05-30T14:41:08.974Z,14.93
2019-05-30T14:43:38.341Z,13.84
2019-05-30T14:46:08.286Z,13.09
2019-05-30T14:48:37.843Z,12.31
2019-05-30T14:51:08.634Z,13.63
2019-05-30T14:53:38.100Z,14.73
2019-05-30T14:56:09.083Z,15.16
2019-05-30T14:58:38.436Z,18.78
2019-05-30T15:01:09.425Z,20.93
2019-05-30T15:20:17.788Z,26.11
2019-05-30T15:22:47.581Z,25.38
2019-05-30T15:25:18.104Z,26.73
2019-05-30T15:27:47.825Z,25.51
2019-05-30T15:30:18.103Z,26.37
2019-05-30T15:32:51.266Z,27.60
2019-05-30T15:35:22.038Z,27.48
2019-05-30T15:37:51.534Z,26.55
2019-05-30T15:40:21.288Z,27.92
2019-05-30T15:42:53.124Z,28.41
2019-05-30T15:45:22.112Z,28.24
2019-05-30T15:47:52.078Z,27.63
2019-05-30T15:50:21.634Z,26.48
2019-05-30T15:52:52.242Z,27.56
2019-05-30T15:55:23.291Z,27.26
2019-05-30T15:57:53.007Z,27.76
2019-05-30T16:00:23.612Z,29.00
2019-05-30T16:02:53.225Z,29.34
2019-05-30T16:05:22.894Z,29.18
2019-05-30T16:07:52.466Z,27.19
2019-05-30T16:10:22.079Z,25.77
2019-05-30T16:12:51.679Z,26.62
2019-05-30T16:15:22.996Z,27.84
2019-05-30T16:17:52.527Z,28.18
2019-05-30T16:20:25.152Z,28.44
2019-05-30T16:22:56.681Z,28.42
2019-05-30T16:25:26.068Z,28.43
2019-05-30T16:27:55.520Z,29.07
2019-05-30T16:30:27.139Z,29.53
2019-05-30T16:32:56.596Z,30.40
2019-05-30T16:35:27.016Z,30.25
2019-05-30T16:37:58.682Z,30.87
2019-05-30T16:40:29.227Z,30.07
2019-05-30T16:43:01.174Z,30.79
2019-05-30T16:45:31.785Z,31.28
2019-05-30T16:48:07.127Z,32.12
2019-05-30T16:50:36.688Z,32.04
2019-05-30T16:53:06.306Z,31.48
2019-05-30T16:55:38.656Z,33.28
2019-05-30T16:58:10.546Z,31.30
2019-05-30T17:00:40.016Z,31.25
2019-05-30T17:03:10.751Z,32.01
2019-05-30T17:05:40.175Z,32.20
2019-05-30T17:08:16.035Z,33.26
2019-05-30T17:10:45.663Z,33.43
2019-05-30T17:13:18.178Z,32.21
2019-05-30T17:15:47.761Z,32.46
2019-05-30T17:18:18.024Z,32.48
2019-05-30T17:20:47.577Z,32.54
2019-05-30T17:23:17.098Z,33.42
2019-05-30T17:25:46.615Z,32.89
2019-05-30T17:28:16.161Z,33.82
2019-05-30T17:30:45.682Z,32.98
2019-05-30T17:33:17.810Z,33.86
2019-05-30T17:35:47.001Z,34.56
2019-05-30T17:38:16.811Z,34.67
2019-05-30T17:40:49.613Z,35.11
2019-05-30T17:43:18.871Z,35.13
2019-05-30T17:45:48.401Z,36.04
2019-05-30T17:48:19.228Z,35.78
2019-05-30T17:50:48.771Z,35.23
2019-05-30T17:53:18.251Z,35.18
2019-05-30T17:55:48.080Z,36.00
2019-05-30T17:58:17.712Z,35.15
2019-05-30T18:00:47.219Z,35.23
2019-05-30T18:03:16.719Z,35.60
2019-05-30T18:05:46.269Z,35.31
2019-05-30T18:08:15.713Z,35.12
2019-05-30T18:10:53.428Z,35.49
2019-05-30T18:13:16.437Z,35.94
2019-05-30T18:15:45.910Z,36.15
2019-05-30T18:18:15.438Z,36.48
2019-05-30T18:20:48.432Z,37.65
2019-05-30T18:23:16.286Z,39.48
2019-05-30T18:25:46.114Z,41.53
2019-05-30T18:28:15.554Z,42.76
2019-05-30T18:30:45.254Z,44.81
2019-05-30T18:33:14.793Z,46.91
2019-05-30T18:35:44.290Z,44.15
2019-05-30T18:38:13.801Z,44.24
2019-05-30T18:40:43.289Z,45.16
2019-05-30T18:43:12.826Z,45.41
2019-05-30T18:45:43.189Z,45.66
2019-05-30T18:48:12.817Z,45.96
2019-05-30T18:50:42.346Z,47.57
2019-05-30T18:53:11.835Z,47.17
2019-05-30T18:55:41.322Z,47.27
2019-05-30T18:58:10.861Z,47.99
2019-05-30T19:00:40.461Z,47.98
2019-05-30T19:03:10.067Z,48.28
2019-05-30T19:05:39.637Z,48.24
2019-05-30T19:08:09.166Z,47.98
2019-05-30T19:10:38.719Z,48.49
2019-05-30T19:13:08.315Z,50.24
2019-05-30T19:15:37.804Z,50.30
2019-05-30T19:18:09.238Z,49.88
2019-05-30T19:20:38.859Z,50.24
2019-05-30T19:23:08.393Z,49.46
2019-05-30T19:25:37.969Z,50.65
2019-05-30T19:28:07.509Z,49.18
2019-05-30T19:30:38.081Z,49.18
2019-05-30T19:33:09.434Z,50.01
2019-05-30T19:35:38.986Z,50.67
2019-05-30T19:38:08.628Z,51.14
2019-05-30T19:40:38.221Z,51.32
2019-05-30T19:43:07.715Z,51.81
2019-05-30T19:45:38.307Z,52.19
2019-05-30T19:48:07.890Z,51.39
2019-05-30T19:50:37.347Z,49.35
2019-05-30T19:53:06.950Z,48.94
2019-05-30T19:55:37.533Z,48.64
2019-05-30T19:58:07.222Z,48.38
2019-05-30T20:00:54.455Z,49.33
2019-05-30T20:03:07.901Z,48.78
2019-05-30T20:05:38.772Z,49.60
2019-05-30T20:08:08.363Z,49.62
2019-05-30T20:10:39.118Z,49.39
2019-05-30T20:13:08.842Z,49.71
2019-05-30T20:15:39.550Z,50.65
2019-05-30T20:18:09.203Z,52.18
2019-05-30T20:20:53.932Z,52.61
2019-05-30T20:23:10.136Z,52.61
2019-05-30T20:25:43.705Z,52.31
2019-05-30T20:28:10.862Z,52.50
2019-05-30T20:30:41.179Z,52.38
2019-05-30T20:33:11.023Z,52.78
2019-05-30T20:35:41.802Z,53.12
2019-05-30T20:38:11.948Z,52.63
2019-05-30T20:40:41.594Z,53.23
2019-05-30T20:43:11.115Z,53.88
2019-05-30T20:45:46.943Z,54.05
2019-05-30T20:48:12.078Z,54.00
2019-05-30T20:50:41.900Z,54.01
2019-05-30T20:53:11.470Z,53.92
2019-05-30T20:55:41.080Z,53.93
2019-05-30T20:58:11.687Z,54.94
2019-05-30T21:00:42.167Z,54.83
2019-05-30T21:03:11.776Z,54.85
2019-05-30T21:05:42.055Z,54.96
2019-05-30T21:08:12.822Z,54.58
2019-05-30T21:10:43.900Z,54.63
2019-05-30T21:13:13.634Z,54.83
2019-05-30T21:15:45.774Z,55.18
2019-05-30T21:18:16.743Z,56.04
2019-05-30T21:20:46.331Z,54.85
2019-05-30T21:23:15.835Z,55.13
2019-05-30T21:25:45.388Z,54.93
2019-05-30T23:40:37.424Z,58.64
2019-05-30T23:43:07.306Z,59.33
2019-05-30T23:45:36.785Z,59.72
2019-05-30T23:48:06.231Z,59.30
2019-05-30T23:50:35.755Z,59.03
2019-05-30T23:53:05.252Z,59.00
2019-05-30T23:55:34.780Z,59.38
2019-05-30T23:58:04.326Z,60.10
